Aviation Digital Data Service (ADDS)

Output produced by METARs form (0948 UTC 17 February 2019)
found at http://aviationweather.gov/metar/data/
 
METAR text: KUKI 170925Z AUTO 15003KT 10SM -RA SCT007 OVC034 03/02 A3005 RMK AO2 P0001 T00330017
Conditions at: KUKI (UKIAH , CA, US) observed 0925 UTC 17 February 2019
Temperature: 3.3°C (38°F)
Dewpoint: 1.7°C (35°F) [RH = 89%]
Pressure (altimeter): 30.05 inches Hg (1017.7 mb)
Winds: from the SSE (150 degrees) at 3 MPH (3 knots; 1.5 m/s)
Visibility: 10 or more miles (16+ km)
Ceiling: 3400 feet AGL
Clouds: scattered clouds at 700 feet AGL
overcast cloud deck at 3400 feet AGL
Weather: -RA  (light rain)

METAR text: KUKI 170909Z AUTO 17003KT 10SM -RA FEW014 OVC030 03/02 A3005 RMK AO2 P0000 T00330017
Conditions at: KUKI (UKIAH , CA, US) observed 0909 UTC 17 February 2019
Temperature: 3.3°C (38°F)
Dewpoint: 1.7°C (35°F) [RH = 89%]
Pressure (altimeter): 30.05 inches Hg (1017.7 mb)
Winds: from the S (170 degrees) at 3 MPH (3 knots; 1.5 m/s)
Visibility: 10 or more miles (16+ km)
Ceiling: 3000 feet AGL
Clouds: few clouds at 1400 feet AGL
overcast cloud deck at 3000 feet AGL
Weather: -RA  (light rain)

METAR text: KUKI 170856Z AUTO 20004KT 5SM -RA BR SCT014 OVC024 04/02 A3006 RMK AO2 SLP180 P0010 60014 T00390017 56013
Conditions at: KUKI (UKIAH , CA, US) observed 0856 UTC 17 February 2019
Temperature: 3.9°C (39°F)
Dewpoint: 1.7°C (35°F) [RH = 86%]
Pressure (altimeter): 30.06 inches Hg (1018.0 mb)
[Sea-level pressure: 1018.0 mb]
Winds: from the SSW (200 degrees) at 5 MPH (4 knots; 2.1 m/s)
Visibility: 5 miles ( 8 km)
Ceiling: 2400 feet AGL
Clouds: scattered clouds at 1400 feet AGL
overcast cloud deck at 2400 feet AGL
Weather: -RA BR  (light rain, mist)

METAR text: KUKI 170853Z AUTO 18004KT 5SM RA BR BKN014 OVC020 04/02 A3006 RMK AO2 P0009
Conditions at: KUKI (UKIAH , CA, US) observed 0853 UTC 17 February 2019
Temperature: 4.0°C (39°F)
Dewpoint: 2.0°C (36°F) [RH = 87%]
Pressure (altimeter): 30.06 inches Hg (1018.0 mb)
Winds: from the S (180 degrees) at 5 MPH (4 knots; 2.1 m/s)
Visibility: 5 miles ( 8 km)
Ceiling: 1400 feet AGL
Clouds: broken clouds at 1400 feet AGL
overcast cloud deck at 2000 feet AGL
Weather: RA BR  (moderate rain, mist)

METAR text: KUKI 170756Z AUTO 25003KT 6SM -RA BR FEW023 OVC028 04/03 A3008 RMK AO2 SLP184 P0003 T00390028 400890033
Conditions at: KUKI (UKIAH , CA, US) observed 0756 UTC 17 February 2019
Temperature: 3.9°C (39°F)
Dewpoint: 2.8°C (37°F) [RH = 93%]
Pressure (altimeter): 30.08 inches Hg (1018.7 mb)
[Sea-level pressure: 1018.4 mb]
Winds: from the WSW (250 degrees) at 3 MPH (3 knots; 1.5 m/s)
Visibility: 6 miles (10 km)
Ceiling: 2800 feet AGL
Clouds: few clouds at 2300 feet AGL
overcast cloud deck at 2800 feet AGL
Weather: -RA BR  (light rain, mist)

Forecast for: KUKI (UKIAH , CA, US)
Text: KUKI 170544Z 1706/1806 00000KT P6SM SCT035
Forecast period: 0600 to 1700 UTC 17 February 2019
Forecast type: FROM: standard forecast or significant change
Winds: calm
Visibility: 6 or more miles 10+ km)
Ceiling: at least 12,000 feet AGL
Clouds: scattered clouds at 3500 feet AGL
Weather: no significant weather forecast for this period
Text: TEMPO 1706/1710 6SM -SHRA BKN025
Forecast period: 0600 to 1000 UTC 17 February 2019
Forecast type: TEMPORARY: The following changes expected for less than half the time period
Visibility: 6 miles (10 km)
Ceiling: 2500 feet AGL
Clouds: broken clouds at 2500 feet AGL
Weather: -SHRA  (light rain showers)
Text: FM171700 30005KT P6SM FEW010 SCT100
Forecast period: 1700 to 2100 UTC 17 February 2019
Forecast type: FROM: standard forecast or significant change
Winds: from the WNW (300 degrees) at 6 MPH (5 knots; 2.6 m/s)
Visibility: 6 or more miles 10+ km)
Ceiling: at least 12,000 feet AGL
Clouds: few clouds at 1000 feet AGL
scattered clouds at 10000 feet AGL
Weather: no significant weather forecast for this period
Text: FM172100 30009KT P6SM SCT100
Forecast period: 2100 UTC 17 February 2019 to 0400 UTC 18 February 2019
Forecast type: FROM: standard forecast or significant change
Winds: from the WNW (300 degrees) at 10 MPH (9 knots; 4.6 m/s)
Visibility: 6 or more miles 10+ km)
Ceiling: at least 12,000 feet AGL
Clouds: scattered clouds at 10000 feet AGL
Weather: no significant weather forecast for this period
Text: FM180400 VRB03KT P6SM SKC
Forecast period: 0400 to 0600 UTC 18 February 2019
Forecast type: FROM: standard forecast or significant change
Winds: variable direction winds at 3 MPH (3 knots; 1.5 m/s)
Visibility: 6 or more miles 10+ km)
Clouds: clear skies
Weather: no significant weather forecast for this period